Machadinho d'Oeste, Brazil
Current Conditions -  °F | °C
As of 8:00 PM on Tuesday 25 Nov 2014 (Local Time) from SBPV Reporting Station
Broken Clouds Broken Clouds  
Wind Chill: 77°   Ceiling: 10000
Heat Index: 78°   Visibility: 6mi
Dew Point: 73°   Wind: 2mph
Humidity: 89%   Direction: 180°S
Pressure: 29.77"   Gusts: NA
Location:  9.44°S, 61.98°W
Report Text: SBPV 260000Z 18002KT 9999 FEW020 BKN100 25/23 Q1008
Loading
Personal Weather Stations






























Interactive Weather Map New forecast layout! Learn more

10-Day Weather Forecast

Advertisements
Track Severe Weather on mobile